Time;durP1;ratioP1;P1;durP2;ratioP2;P2;SDS_P1;SDS_P2;PMS_P1;PMS_P2;Temp;Humidity;BMP_temperature;BMP_pressure;BME280_temperature;BME280_humidity;BME280_pressure;Samples;Min_cycle;Max_cycle;Signal;HPM_P1;HPM_P2
2023/01/29 00:00:43;;;;;;;35.40;24.63;;;;;;;;;;10071052;28;20057;-69
2023/01/29 00:05:37;;;;;;;34.25;24.73;;;;;;;;;;10066481;28;20045;-69
2023/01/29 00:10:30;;;;;;;30.02;24.05;;;;;;;;;;10074993;28;20053;-69
2023/01/29 00:15:23;;;;;;;30.67;23.70;;;;;;;;;;10068579;28;20053;-69
2023/01/29 00:20:17;;;;;;;29.90;22.58;;;;;;;;;;10078712;28;20049;-69
2023/01/29 00:25:12;;;;;;;29.05;21.65;;;;;;;;;;10070043;28;20494;-69
2023/01/29 00:30:17;;;;;;;26.65;20.45;;;;;;;;;;10070395;28;20063;-69
2023/01/29 00:35:12;;;;;;;27.55;20.83;;;;;;;;;;10071244;28;20420;-68
2023/01/29 00:40:09;;;;;;;28.45;20.15;;;;;;;;;;10058359;28;20065;-68
2023/01/29 00:45:03;;;;;;;27.00;19.58;;;;;;;;;;10079972;28;20052;-68
2023/01/29 00:49:56;;;;;;;26.05;20.10;;;;;;;;;;10075194;28;20053;-68
2023/01/29 00:54:50;;;;;;;27.38;19.73;;;;;;;;;;10072690;28;20057;-68
2023/01/29 00:59:44;;;;;;;28.80;19.85;;;;;;;;;;10078936;28;20053;-68
2023/01/29 01:04:37;;;;;;;27.52;20.98;;;;;;;;;;10083504;28;20132;-68
2023/01/29 01:14:43;;;;;;;41.92;27.88;;;;;;;;;;10058663;28;20553;-68
2023/01/29 01:19:37;;;;;;;37.72;27.95;;;;;;;;;;10100283;28;20561;-68
2023/01/29 01:24:30;;;;;;;34.88;26.48;;;;;;;;;;10090683;28;20098;-68
2023/01/29 01:29:24;;;;;;;37.60;27.00;;;;;;;;;;10104964;28;20045;-68
2023/01/29 01:34:18;;;;;;;40.67;29.90;;;;;;;;;;10054845;28;20053;-68
2023/01/29 01:39:11;;;;;;;34.25;25.95;;;;;;;;;;10065290;28;20457;-68
2023/01/29 01:44:06;;;;;;;35.65;26.73;;;;;;;;;;10071973;28;20081;-68
2023/01/29 01:49:20;;;;;;;30.83;24.35;;;;;;;;;;10077857;28;20107;-68
2023/01/29 01:54:19;;;;;;;33.75;25.63;;;;;;;;;;10040335;28;20156;-68
2023/01/29 01:59:12;;;;;;;;;;;;;;;;;;10067801;28;20095;-68
2023/01/29 02:10:05;;;;;;;31.92;24.95;;;;;;;;;;10054354;28;20045;-68
2023/01/29 02:14:59;;;;;;;32.67;23.73;;;;;;;;;;10073069;28;20733;-69
2023/01/29 02:20:01;;;;;;;34.17;26.02;;;;;;;;;;10089473;28;20037;-68
2023/01/29 02:24:56;;;;;;;35.58;25.17;;;;;;;;;;10057042;28;20477;-68
2023/01/29 02:30:03;;;;;;;28.02;22.83;;;;;;;;;;10069756;28;20071;-69
2023/01/29 02:35:25;;;;;;;30.25;22.88;;;;;;;;;;10076585;28;20080;-69
2023/01/29 02:41:04;;;;;;;31.38;21.67;;;;;;;;;;10070098;28;20057;-69
2023/01/29 02:46:01;;;;;;;30.80;22.35;;;;;;;;;;10073863;28;20049;-68
2023/01/29 02:50:58;;;;;;;33.10;25.13;;;;;;;;;;10078112;28;20060;-69
2023/01/29 02:55:57;;;;;;;33.92;22.23;;;;;;;;;;10100673;28;20060;-69
2023/01/29 03:00:51;;;;;;;30.35;23.15;;;;;;;;;;10063043;28;20057;-70
2023/01/29 03:06:06;;;;;;;32.28;25.33;;;;;;;;;;10061348;28;20099;-69
2023/01/29 03:11:03;;;;;;;33.33;21.60;;;;;;;;;;10062151;28;20075;-69
2023/01/29 03:16:03;;;;;;;29.33;21.67;;;;;;;;;;10064050;28;20080;-69
2023/01/29 03:21:49;;;;;;;34.30;23.35;;;;;;;;;;10052673;28;20044;-70
2023/01/29 03:36:56;;;;;;;29.35;21.42;;;;;;;;;;10044266;28;20056;-70
2023/01/29 03:42:03;;;;;;;31.98;24.92;;;;;;;;;;10049172;28;20045;-70
2023/01/29 03:47:03;;;;;;;33.45;24.20;;;;;;;;;;10054199;28;20045;-70
2023/01/29 03:52:04;;;;;;;;;;;;;;;;;;10064026;28;20053;-68
2023/01/29 03:57:10;;;;;;;34.90;24.23;;;;;;;;;;10054229;28;19988;-70
2023/01/29 04:02:18;;;;;;;32.50;24.20;;;;;;;;;;10058698;28;20079;-69
2023/01/29 04:07:22;;;;;;;31.38;23.00;;;;;;;;;;10048924;28;20047;-70
2023/01/29 04:12:30;;;;;;;33.15;26.27;;;;;;;;;;10092776;28;20041;-68
2023/01/29 04:17:28;;;;;;;32.17;25.73;;;;;;;;;;10076798;28;20057;-70
2023/01/29 04:22:37;;;;;;;27.10;21.75;;;;;;;;;;10066165;28;20041;-70
2023/01/29 04:27:30;;;;;;;33.58;24.55;;;;;;;;;;10069880;28;20090;-69
2023/01/29 04:33:14;;;;;;;33.67;23.23;;;;;;;;;;10060124;28;20095;-69
2023/01/29 04:38:46;;;;;;;29.52;22.88;;;;;;;;;;10013347;28;20136;-69
2023/01/29 04:44:03;;;;;;;31.15;23.88;;;;;;;;;;10075166;28;20049;-69
2023/01/29 04:49:15;;;;;;;29.58;23.60;;;;;;;;;;10082961;28;20081;-69
2023/01/29 04:54:55;;;;;;;35.97;23.50;;;;;;;;;;10088710;28;20059;-69
2023/01/29 05:00:03;;;;;;;32.08;25.58;;;;;;;;;;10075612;28;20156;-69
2023/01/29 05:04:57;;;;;;;35.55;24.00;;;;;;;;;;10081649;28;20045;-69
2023/01/29 05:09:51;;;;;;;31.42;23.33;;;;;;;;;;10074373;28;20494;-70
2023/01/29 05:14:45;;;;;;;32.08;22.08;;;;;;;;;;10085631;28;20049;-70
2023/01/29 05:19:39;;;;;;;34.53;23.38;;;;;;;;;;10077456;28;20041;-70
2023/01/29 05:24:31;;;;;;;27.92;21.88;;;;;;;;;;10075535;28;20115;-70
2023/01/29 05:29:25;;;;;;;26.08;20.00;;;;;;;;;;10084849;28;20044;-70
2023/01/29 05:34:19;;;;;;;26.05;20.88;;;;;;;;;;10072898;28;20550;-70
2023/01/29 05:39:12;;;;;;;29.08;21.30;;;;;;;;;;10073393;28;20055;-68
2023/01/29 05:44:06;;;;;;;29.63;23.55;;;;;;;;;;10070960;28;20387;-68
2023/01/29 05:49:00;;;;;;;31.40;23.85;;;;;;;;;;10079562;28;20064;-68
2023/01/29 05:53:53;;;;;;;33.63;24.98;;;;;;;;;;10075118;28;20054;-68
2023/01/29 05:58:47;;;;;;;28.98;21.75;;;;;;;;;;10085594;28;20049;-69
2023/01/29 06:03:41;;;;;;;35.55;23.98;;;;;;;;;;10074191;28;20053;-69
2023/01/29 06:08:34;;;;;;;27.67;21.40;;;;;;;;;;10078238;28;20486;-69
2023/01/29 06:13:28;;;;;;;30.23;22.73;;;;;;;;;;10090603;28;20125;-69
2023/01/29 06:18:22;;;;;;;29.88;22.40;;;;;;;;;;10092053;28;20041;-69
2023/01/29 06:23:15;;;;;;;34.10;23.30;;;;;;;;;;10093341;28;20064;-69
2023/01/29 06:28:08;;;;;;;28.60;21.92;;;;;;;;;;10090097;28;20465;-69
2023/01/29 06:33:02;;;;;;;26.00;19.80;;;;;;;;;;10093745;28;20045;-70
2023/01/29 06:37:55;;;;;;;25.30;18.58;;;;;;;;;;10089599;28;20505;-69
2023/01/29 06:42:48;;;;;;;29.60;19.98;;;;;;;;;;10090491;28;20052;-69
2023/01/29 06:47:42;;;;;;;26.15;19.90;;;;;;;;;;10093741;28;20452;-69
2023/01/29 06:52:34;;;;;;;27.17;20.27;;;;;;;;;;10077484;28;20057;-69
2023/01/29 06:57:29;;;;;;;42.20;26.67;;;;;;;;;;10090608;28;20094;-67
2023/01/29 07:02:22;;;;;;;42.30;27.83;;;;;;;;;;10090233;28;20077;-69
2023/01/29 07:07:16;;;;;;;35.05;25.65;;;;;;;;;;10084530;28;20045;-68
2023/01/29 07:12:10;;;;;;;30.85;22.58;;;;;;;;;;10085819;28;20486;-68
2023/01/29 07:17:04;;;;;;;28.45;20.35;;;;;;;;;;10090999;28;20481;-70
2023/01/29 07:22:01;;;;;;;29.30;20.52;;;;;;;;;;10092190;28;20516;-69
2023/01/29 07:26:54;;;;;;;26.08;19.60;;;;;;;;;;10094314;28;20296;-69
2023/01/29 07:31:47;;;;;;;29.63;23.75;;;;;;;;;;10077123;28;20061;-71
2023/01/29 07:36:41;;;;;;;30.23;20.90;;;;;;;;;;10089982;28;20121;-70
2023/01/29 07:41:35;;;;;;;31.33;21.70;;;;;;;;;;10091529;28;20076;-71
2023/01/29 07:46:39;;;;;;;28.67;20.67;;;;;;;;;;10070951;28;20042;-71
2023/01/29 07:51:32;;;;;;;30.80;23.70;;;;;;;;;;10086053;28;20434;-73
2023/01/29 07:56:27;;;;;;;30.25;23.13;;;;;;;;;;10091000;28;20033;-68
2023/01/29 08:01:21;;;;;;;32.88;26.02;;;;;;;;;;10089364;28;20052;-68
2023/01/29 08:06:14;;;;;;;32.53;22.73;;;;;;;;;;10085222;28;20821;-72
2023/01/29 08:11:09;;;;;;;39.03;30.17;;;;;;;;;;10083383;28;20053;-68
2023/01/29 08:16:04;;;;;;;31.05;22.27;;;;;;;;;;10085709;28;20048;-72
2023/01/29 08:21:19;;;;;;;38.85;27.25;;;;;;;;;;10086243;28;20048;-70
2023/01/29 08:26:13;;;;;;;38.63;28.20;;;;;;;;;;10091881;28;20053;-71
2023/01/29 08:31:15;;;;;;;32.90;24.02;;;;;;;;;;10096161;28;20473;-70
2023/01/29 08:36:10;;;;;;;48.58;37.00;;;;;;;;;;10093085;28;20471;-69
2023/01/29 08:41:03;;;;;;;33.58;24.88;;;;;;;;;;10088511;28;20075;-70
2023/01/29 08:45:57;;;;;;;34.75;26.98;;;;;;;;;;10091224;28;20548;-69
2023/01/29 08:50:51;;;;;;;33.85;26.30;;;;;;;;;;10093545;28;20080;-67
2023/01/29 08:55:45;;;;;;;32.97;24.55;;;;;;;;;;10101489;28;20041;-67
2023/01/29 09:00:38;;;;;;;31.20;23.25;;;;;;;;;;10110415;28;20115;-67
2023/01/29 09:05:32;;;;;;;30.48;23.33;;;;;;;;;;10100876;28;20050;-67
2023/01/29 09:10:27;;;;;;;32.22;24.02;;;;;;;;;;10092432;28;20100;-67
2023/01/29 09:15:19;;;;;;;32.22;22.55;;;;;;;;;;10098828;28;20055;-67
2023/01/29 09:20:12;;;;;;;26.50;20.75;;;;;;;;;;10096621;28;20067;-67
2023/01/29 09:25:07;;;;;;;24.50;18.25;;;;;;;;;;10099510;28;20049;-68
2023/01/29 09:30:01;;;;;;;28.40;18.95;;;;;;;;;;10098663;28;20049;-66
2023/01/29 09:34:54;;;;;;;22.70;16.77;;;;;;;;;;10097701;28;20045;-66
2023/01/29 09:39:48;;;;;;;23.40;17.77;;;;;;;;;;10092352;28;20076;-66
2023/01/29 09:44:59;;;;;;;27.27;18.52;;;;;;;;;;10089691;28;20045;-68
2023/01/29 09:49:57;;;;;;;26.73;17.95;;;;;;;;;;10098077;28;20057;-66
2023/01/29 09:54:54;;;;;;;23.92;18.35;;;;;;;;;;10097141;28;20045;-66
2023/01/29 09:59:50;;;;;;;;;;;;;;;;;;10095162;28;20049;-66
2023/01/29 10:04:52;;;;;;;23.80;18.10;;;;;;;;;;10092089;28;19928;-66
2023/01/29 10:09:58;;;;;;;24.00;18.50;;;;;;;;;;10092216;28;20103;-66
2023/01/29 10:14:56;;;;;;;22.67;17.67;;;;;;;;;;10088043;28;20102;-66
2023/01/29 10:19:54;;;;;;;24.90;18.05;;;;;;;;;;10105454;28;20563;-66
2023/01/29 10:24:54;;;;;;;21.60;17.48;;;;;;;;;;10115015;28;20075;-66
2023/01/29 10:29:51;;;;;;;27.35;19.27;;;;;;;;;;10114462;28;20102;-65
2023/01/29 10:34:52;;;;;;;28.27;18.90;;;;;;;;;;10084138;28;20053;-65
2023/01/29 10:39:46;;;;;;;28.25;19.25;;;;;;;;;;10068016;28;20045;-66
2023/01/29 10:44:48;;;;;;;22.05;17.45;;;;;;;;;;10089189;28;20144;-65
2023/01/29 10:49:51;;;;;;;26.80;18.08;;;;;;;;;;10071137;28;20571;-67
2023/01/29 10:55:12;;;;;;;29.88;20.80;;;;;;;;;;10084066;28;20089;-71
2023/01/29 11:00:18;;;;;;;25.40;19.13;;;;;;;;;;10090903;28;20104;-71
2023/01/29 11:05:20;;;;;;;24.83;19.70;;;;;;;;;;10083563;28;20045;-68
2023/01/29 11:10:19;;;;;;;26.20;19.83;;;;;;;;;;10112224;28;20409;-65
2023/01/29 11:15:23;;;;;;;26.35;19.20;;;;;;;;;;10102157;28;20044;-65
2023/01/29 11:20:27;;;;;;;30.63;21.40;;;;;;;;;;10094923;28;20060;-64
2023/01/29 11:25:22;;;;;;;27.20;21.23;;;;;;;;;;10106990;28;20486;-65
2023/01/29 11:30:27;;;;;;;25.98;19.48;;;;;;;;;;10103005;28;20054;-65
2023/01/29 11:35:22;;;;;;;49.25;20.67;;;;;;;;;;10068098;28;20104;-65
2023/01/29 11:40:17;;;;;;;25.35;19.90;;;;;;;;;;10084624;28;20140;-65
2023/01/29 11:45:19;;;;;;;27.02;20.90;;;;;;;;;;10100887;28;20466;-65
2023/01/29 11:50:20;;;;;;;23.75;18.48;;;;;;;;;;10097453;28;20071;-65
2023/01/29 11:55:22;;;;;;;30.10;20.52;;;;;;;;;;10093455;28;20132;-65
2023/01/29 12:00:21;;;;;;;30.15;21.23;;;;;;;;;;10059563;28;20122;-66
2023/01/29 12:05:20;;;;;;;24.50;19.90;;;;;;;;;;10093181;28;20469;-65
2023/01/29 12:10:35;;;;;;;28.17;19.67;;;;;;;;;;10097683;28;20548;-65
2023/01/29 12:15:28;;;;;;;23.15;19.13;;;;;;;;;;10124204;28;20420;-65
2023/01/29 12:20:29;;;;;;;22.52;17.83;;;;;;;;;;10098879;28;20049;-65
2023/01/29 12:25:23;;;;;;;23.85;18.05;;;;;;;;;;10089693;28;20075;-66
2023/01/29 12:30:25;;;;;;;25.08;20.10;;;;;;;;;;10068592;28;20494;-67
2023/01/29 12:35:24;;;;;;;23.33;18.10;;;;;;;;;;10103092;28;20040;-66
2023/01/29 12:40:18;;;;;;;24.70;17.98;;;;;;;;;;10079817;28;20512;-66
2023/01/29 12:45:18;;;;;;;23.80;17.98;;;;;;;;;;10095076;28;20076;-67
2023/01/29 12:50:17;;;;;;;25.60;18.27;;;;;;;;;;10090319;28;20052;-66
2023/01/29 12:55:23;;;;;;;25.65;18.83;;;;;;;;;;10091791;28;20053;-67
2023/01/29 13:00:37;;;;;;;24.65;17.73;;;;;;;;;;10090839;28;20100;-67
2023/01/29 13:05:37;;;;;;;22.67;16.38;;;;;;;;;;10058289;28;20459;-66
2023/01/29 13:10:33;;;;;;;;;;;;;;;;;;10083480;28;20512;-64
2023/01/29 13:15:33;;;;;;;21.73;14.10;;;;;;;;;;10096855;28;20003;-67
2023/01/29 13:20:31;;;;;;;19.48;14.40;;;;;;;;;;10082401;28;20041;-67
2023/01/29 13:25:30;;;;;;;18.80;14.95;;;;;;;;;;10094144;28;20053;-67
2023/01/29 13:30:24;;;;;;;;;;;;;;;;;;10086120;28;20037;-64
2023/01/29 13:35:20;;;;;;;17.25;13.73;;;;;;;;;;10088714;28;19984;-67
2023/01/29 13:40:19;;;;;;;23.17;15.52;;;;;;;;;;10080254;28;20057;-67
2023/01/29 13:45:25;;;;;;;17.30;14.93;;;;;;;;;;10115860;28;20049;-67
2023/01/29 13:50:34;;;;;;;17.80;13.25;;;;;;;;;;10105296;28;20061;-66
2023/01/29 13:55:40;;;;;;;27.50;19.70;;;;;;;;;;10075834;28;20111;-66
2023/01/29 14:00:32;;;;;;;18.42;13.43;;;;;;;;;;10087769;28;20057;-67
2023/01/29 14:05:30;;;;;;;20.50;13.80;;;;;;;;;;10091258;28;20077;-72
2023/01/29 14:10:25;;;;;;;21.40;16.05;;;;;;;;;;10088842;28;20132;-67
2023/01/29 14:15:18;;;;;;;17.65;14.50;;;;;;;;;;10089987;28;20095;-66
2023/01/29 14:20:18;;;;;;;18.00;14.93;;;;;;;;;;10085850;28;20045;-67
2023/01/29 14:25:17;;;;;;;19.67;14.67;;;;;;;;;;10087788;28;20069;-69
2023/01/29 14:30:12;;;;;;;;;;;;;;;;;;10085334;28;20107;-68
2023/01/29 14:35:20;;;;;;;21.23;14.60;;;;;;;;;;10085439;28;20086;-69
2023/01/29 14:40:17;;;;;;;18.45;14.48;;;;;;;;;;10103055;28;20414;-68
2023/01/29 14:45:32;;;;;;;20.13;15.43;;;;;;;;;;10104914;28;20049;-66
2023/01/29 14:50:27;;;;;;;20.67;13.70;;;;;;;;;;10102399;28;20069;-69
2023/01/29 14:55:36;;;;;;;20.83;16.05;;;;;;;;;;10099497;28;20164;-69
2023/01/29 15:00:38;;;;;;;21.03;15.53;;;;;;;;;;10089110;28;20046;-68
2023/01/29 15:05:35;;;;;;;19.35;13.85;;;;;;;;;;10097837;28;20103;-70
2023/01/29 15:10:28;;;;;;;15.45;13.35;;;;;;;;;;10088729;28;20060;-70
2023/01/29 15:15:36;;;;;;;20.20;13.43;;;;;;;;;;10095305;28;20137;-70
2023/01/29 15:20:36;;;;;;;18.70;13.40;;;;;;;;;;10093460;28;20052;-68
2023/01/29 15:25:35;;;;;;;22.80;15.15;;;;;;;;;;10092823;28;20168;-68
2023/01/29 15:30:32;;;;;;;18.30;14.38;;;;;;;;;;10087540;28;20041;-72
2023/01/29 15:35:47;;;;;;;23.05;16.38;;;;;;;;;;10105133;28;20045;-75
2023/01/29 15:41:03;;;;;;;18.52;14.10;;;;;;;;;;10079259;28;20072;-69
2023/01/29 15:46:33;;;;;;;19.55;14.68;;;;;;;;;;10091725;28;20048;-68
2023/01/29 15:51:27;;;;;;;19.77;14.73;;;;;;;;;;10048472;28;20057;-69
2023/01/29 15:56:45;;;;;;;22.17;15.55;;;;;;;;;;10096207;28;20299;-70
2023/01/29 16:01:39;;;;;;;24.20;16.50;;;;;;;;;;10090330;28;20472;-71
2023/01/29 16:06:36;;;;;;;22.08;16.23;;;;;;;;;;10093153;28;20052;-71
2023/01/29 16:11:31;;;;;;;22.02;17.17;;;;;;;;;;10077938;28;20124;-69
2023/01/29 16:16:26;;;;;;;23.38;16.27;;;;;;;;;;10086073;28;20045;-71
2023/01/29 16:21:37;;;;;;;20.05;14.93;;;;;;;;;;10079319;28;20080;-72
2023/01/29 16:26:51;;;;;;;24.65;17.60;;;;;;;;;;10067882;28;20061;-70
2023/01/29 16:31:46;;;;;;;29.30;22.90;;;;;;;;;;10094031;28;20494;-71
2023/01/29 16:36:46;;;;;;;24.75;19.63;;;;;;;;;;10071138;28;20060;-71
2023/01/29 16:41:39;;;;;;;24.88;19.08;;;;;;;;;;10085877;28;20049;-70
2023/01/29 16:46:36;;;;;;;18.38;15.70;;;;;;;;;;10095246;28;20056;-70
2023/01/29 16:51:29;;;;;;;22.33;16.35;;;;;;;;;;10076600;28;20053;-70
2023/01/29 16:56:22;;;;;;;24.02;15.80;;;;;;;;;;10096779;28;20045;-71
2023/01/29 17:01:16;;;;;;;24.17;19.10;;;;;;;;;;10077783;28;20077;-70
2023/01/29 17:06:29;;;;;;;41.67;28.33;;;;;;;;;;10096533;28;20059;-70
2023/01/29 17:11:35;;;;;;;43.58;30.25;;;;;;;;;;10075600;28;20088;-72
2023/01/29 17:16:31;;;;;;;43.92;30.77;;;;;;;;;;10086319;28;20059;-70
2023/01/29 17:21:25;;;;;;;48.78;32.78;;;;;;;;;;10102267;28;20391;-70
2023/01/29 17:26:20;;;;;;;38.78;29.55;;;;;;;;;;10120427;28;20054;-71
2023/01/29 17:31:14;;;;;;;36.03;27.05;;;;;;;;;;10093378;28;20485;-70
2023/01/29 17:36:12;;;;;;;36.22;26.83;;;;;;;;;;10108756;28;20049;-70
2023/01/29 17:41:11;;;;;;;32.72;24.23;;;;;;;;;;10105591;28;20071;-70
2023/01/29 17:46:05;;;;;;;33.97;26.13;;;;;;;;;;10097321;28;20053;-71
2023/01/29 17:51:02;;;;;;;41.13;31.58;;;;;;;;;;10101229;28;20620;-71
2023/01/29 17:55:54;;;;;;;36.78;29.17;;;;;;;;;;10096458;28;20099;-70
2023/01/29 18:00:49;;;;;;;46.78;30.10;;;;;;;;;;10103727;28;20045;-71
2023/01/29 18:05:43;;;;;;;41.95;28.10;;;;;;;;;;10102753;28;20094;-71
2023/01/29 18:10:36;;;;;;;35.63;28.42;;;;;;;;;;10101225;28;20045;-71
2023/01/29 18:15:30;;;;;;;54.47;40.33;;;;;;;;;;10089095;28;20052;-73
2023/01/29 18:20:24;;;;;;;48.65;34.65;;;;;;;;;;10097958;28;20069;-72
2023/01/29 18:25:18;;;;;;;51.97;37.45;;;;;;;;;;10100753;28;20532;-72
2023/01/29 18:30:13;;;;;;;53.08;41.67;;;;;;;;;;10094348;28;20041;-69
2023/01/29 18:35:08;;;;;;;54.03;41.35;;;;;;;;;;10093890;28;20127;-70
2023/01/29 18:40:02;;;;;;;52.45;41.25;;;;;;;;;;10086295;28;20055;-72
2023/01/29 18:44:56;;;;;;;60.85;46.10;;;;;;;;;;10099303;28;20072;-71
2023/01/29 18:49:50;;;;;;;81.05;61.50;;;;;;;;;;10085230;28;20544;-70
2023/01/29 18:54:43;;;;;;;59.85;48.42;;;;;;;;;;10079464;28;20051;-70
2023/01/29 18:59:37;;;;;;;63.85;47.53;;;;;;;;;;10090499;28;20040;-68
2023/01/29 19:04:31;;;;;;;66.28;47.90;;;;;;;;;;10095234;28;20049;-71
2023/01/29 19:09:27;;;;;;;64.53;46.92;;;;;;;;;;10085967;28;20077;-71
2023/01/29 19:14:22;;;;;;;56.72;44.38;;;;;;;;;;10086310;28;20057;-72
2023/01/29 19:19:15;;;;;;;55.78;39.85;;;;;;;;;;10084021;28;20037;-73
2023/01/29 19:24:12;;;;;;;60.65;42.50;;;;;;;;;;10081509;28;20043;-72
2023/01/29 19:29:05;;;;;;;48.85;34.85;;;;;;;;;;10095552;28;20075;-72
2023/01/29 19:34:01;;;;;;;54.28;38.80;;;;;;;;;;10097066;28;20033;-69
2023/01/29 19:38:54;;;;;;;47.60;37.20;;;;;;;;;;10092959;28;20039;-69
2023/01/29 19:43:48;;;;;;;57.03;40.47;;;;;;;;;;10084292;28;20052;-70
2023/01/29 19:48:42;;;;;;;53.20;35.55;;;;;;;;;;10098275;28;20080;-71
2023/01/29 19:53:36;;;;;;;45.45;35.53;;;;;;;;;;10084022;28;20099;-68
2023/01/29 19:58:30;;;;;;;42.05;34.22;;;;;;;;;;10104491;28;20124;-67
2023/01/29 20:03:24;;;;;;;54.90;42.58;;;;;;;;;;10090371;28;20051;-68
2023/01/29 20:08:17;;;;;;;66.95;45.17;;;;;;;;;;10089601;28;20110;-68
2023/01/29 20:13:15;;;;;;;54.03;41.17;;;;;;;;;;10087446;28;20495;-67
2023/01/29 20:18:10;;;;;;;57.28;39.78;;;;;;;;;;10091074;28;20065;-68
2023/01/29 20:23:04;;;;;;;50.03;36.60;;;;;;;;;;10093675;28;20509;-67
2023/01/29 20:27:57;;;;;;;37.30;28.85;;;;;;;;;;10087024;28;20167;-67
2023/01/29 20:32:51;;;;;;;35.83;27.50;;;;;;;;;;10088906;28;20103;-68
2023/01/29 20:37:45;;;;;;;37.17;27.17;;;;;;;;;;10091250;28;20037;-68
2023/01/29 20:42:38;;;;;;;35.33;27.70;;;;;;;;;;10088424;28;20446;-68
2023/01/29 20:47:31;;;;;;;35.20;27.05;;;;;;;;;;10084287;28;20045;-68
2023/01/29 20:52:25;;;;;;;34.00;26.25;;;;;;;;;;10098124;28;20099;-66
2023/01/29 20:57:18;;;;;;;36.40;28.08;;;;;;;;;;10104580;28;20050;-67
2023/01/29 21:02:10;;;;;;;32.13;22.85;;;;;;;;;;10084281;28;20052;-66
2023/01/29 21:07:04;;;;;;;39.22;28.98;;;;;;;;;;10091410;28;20049;-68
2023/01/29 21:11:58;;;;;;;38.55;30.63;;;;;;;;;;10090769;28;20539;-69
2023/01/29 21:16:52;;;;;;;36.45;27.13;;;;;;;;;;10095915;28;20099;-69
2023/01/29 21:21:46;;;;;;;38.78;29.70;;;;;;;;;;10082310;28;20457;-69
2023/01/29 21:26:40;;;;;;;53.00;31.20;;;;;;;;;;10085825;28;20470;-69
2023/01/29 21:31:34;;;;;;;42.53;31.63;;;;;;;;;;10099914;28;20057;-69
2023/01/29 21:36:28;;;;;;;43.95;30.85;;;;;;;;;;10095866;28;20128;-68
2023/01/29 21:43:10;;;;;;;45.58;33.28;;;;;;;;;;10087263;28;20111;-69
2023/01/29 21:46:34;;;;;;;49.15;31.75;;;;;;;;;;10092192;28;20048;-68
2023/01/29 21:51:28;;;;;;;30.92;23.00;;;;;;;;;;10090898;28;20463;-64
2023/01/29 21:56:21;;;;;;;34.17;23.80;;;;;;;;;;10089303;28;20525;-66
2023/01/29 22:01:15;;;;;;;30.92;23.65;;;;;;;;;;10096363;28;20133;-65
2023/01/29 22:06:28;;;;;;;30.45;22.60;;;;;;;;;;10097571;28;20044;-66
2023/01/29 22:11:22;;;;;;;30.55;22.38;;;;;;;;;;10092950;28;20046;-66
2023/01/29 22:16:15;;;;;;;28.25;19.27;;;;;;;;;;10086752;28;20056;-65
2023/01/29 22:21:08;;;;;;;27.42;20.75;;;;;;;;;;10090499;28;20049;-65
2023/01/29 22:26:04;;;;;;;26.15;19.83;;;;;;;;;;10098633;28;20741;-66
2023/01/29 22:31:04;;;;;;;25.23;19.15;;;;;;;;;;10093982;28;20048;-66
2023/01/29 22:35:57;;;;;;;29.50;19.52;;;;;;;;;;10090580;28;20121;-66
2023/01/29 22:40:55;;;;;;;28.80;21.40;;;;;;;;;;10098110;28;20449;-66
2023/01/29 22:45:48;;;;;;;25.80;19.67;;;;;;;;;;10096925;28;20049;-65
2023/01/29 22:50:51;;;;;;;34.13;27.42;;;;;;;;;;10103955;28;20164;-65
2023/01/29 22:55:54;;;;;;;25.55;20.35;;;;;;;;;;10091121;28;20099;-66
2023/01/29 23:01:06;;;;;;;28.73;22.20;;;;;;;;;;10087747;28;20103;-65
2023/01/29 23:06:00;;;;;;;25.67;18.92;;;;;;;;;;10082865;28;20071;-65
2023/01/29 23:10:52;;;;;;;28.90;20.27;;;;;;;;;;10093111;28;20092;-65
2023/01/29 23:15:45;;;;;;;29.27;21.40;;;;;;;;;;10099120;28;20049;-65
2023/01/29 23:20:38;;;;;;;26.95;21.77;;;;;;;;;;10091644;28;20044;-67
2023/01/29 23:30:44;;;;;;;24.83;19.88;;;;;;;;;;10091007;28;20049;-68
2023/01/29 23:35:38;;;;;;;26.85;19.60;;;;;;;;;;10088755;28;20056;-68
2023/01/29 23:40:30;;;;;;;27.65;19.30;;;;;;;;;;10083267;28;20057;-68
2023/01/29 23:45:24;;;;;;;25.40;19.52;;;;;;;;;;10081828;28;20057;-67
2023/01/29 23:50:18;;;;;;;23.30;17.25;;;;;;;;;;10072565;28;20053;-68
2023/01/29 23:55:12;;;;;;;26.23;18.95;;;;;;;;;;10088993;28;20049;-66
